sensor_id;sensor_type;location;lat;lon;timestamp;pressure;altitude;pressure_sealevel;temperature;humidity
10202;BME280;5143;42.584;23.164;2023-07-24T00:02:22;92912.38;;;16.17;100.00
10202;BME280;5143;42.584;23.164;2023-07-24T00:04:49;92900.41;;;16.09;100.00
10202;BME280;5143;42.584;23.164;2023-07-24T00:07:17;92900.19;;;16.07;100.00
10202;BME280;5143;42.584;23.164;2023-07-24T00:09:43;92895.91;;;16.06;100.00
10202;BME280;5143;42.584;23.164;2023-07-24T00:12:10;92888.91;;;16.05;100.00
10202;BME280;5143;42.584;23.164;2023-07-24T00:14:37;92886.47;;;15.96;100.00
10202;BME280;5143;42.584;23.164;2023-07-24T00:17:04;92890.47;;;15.94;100.00
10202;BME280;5143;42.584;23.164;2023-07-24T00:19:31;92891.25;;;15.89;100.00
10202;BME280;5143;42.584;23.164;2023-07-24T00:21:58;92884.22;;;15.94;100.00
10202;BME280;5143;42.584;23.164;2023-07-24T00:24:26;92885.47;;;15.99;100.00
10202;BME280;5143;42.584;23.164;2023-07-24T00:26:53;92879.19;;;15.98;100.00
10202;BME280;5143;42.584;23.164;2023-07-24T00:29:20;92891.69;;;15.99;100.00
10202;BME280;5143;42.584;23.164;2023-07-24T00:31:47;92871.06;;;15.76;100.00
10202;BME280;5143;42.584;23.164;2023-07-24T00:34:13;92887.59;;;15.70;100.00
10202;BME280;5143;42.584;23.164;2023-07-24T00:36:40;92867.38;;;15.62;100.00
10202;BME280;5143;42.584;23.164;2023-07-24T00:39:07;92898.06;;;15.77;100.00
10202;BME280;5143;42.584;23.164;2023-07-24T00:41:35;92892.56;;;15.77;100.00
10202;BME280;5143;42.584;23.164;2023-07-24T00:44:02;92895.53;;;15.79;100.00
10202;BME280;5143;42.584;23.164;2023-07-24T00:46:29;92891.31;;;15.78;100.00
10202;BME280;5143;42.584;23.164;2023-07-24T00:48:58;92882.00;;;15.87;100.00
10202;BME280;5143;42.584;23.164;2023-07-24T00:51:26;92883.94;;;15.98;100.00
10202;BME280;5143;42.584;23.164;2023-07-24T00:53:54;92873.69;;;15.98;100.00
10202;BME280;5143;42.584;23.164;2023-07-24T00:56:21;92882.94;;;16.01;100.00
10202;BME280;5143;42.584;23.164;2023-07-24T00:58:49;92880.88;;;16.12;100.00
10202;BME280;5143;42.584;23.164;2023-07-24T01:01:16;92874.03;;;16.19;100.00
10202;BME280;5143;42.584;23.164;2023-07-24T01:03:46;92871.03;;;16.22;100.00
10202;BME280;5143;42.584;23.164;2023-07-24T01:06:12;92872.25;;;16.27;100.00
10202;BME280;5143;42.584;23.164;2023-07-24T01:08:39;92858.19;;;16.30;100.00
10202;BME280;5143;42.584;23.164;2023-07-24T01:11:11;92870.19;;;16.33;100.00
10202;BME280;5143;42.584;23.164;2023-07-24T01:13:44;92858.69;;;16.29;100.00
10202;BME280;5143;42.584;23.164;2023-07-24T01:16:18;92855.53;;;16.19;100.00
10202;BME280;5143;42.584;23.164;2023-07-24T01:18:45;92848.81;;;16.15;100.00
10202;BME280;5143;42.584;23.164;2023-07-24T01:21:15;92847.03;;;16.17;100.00
10202;BME280;5143;42.584;23.164;2023-07-24T01:23:53;92847.47;;;16.21;100.00
10202;BME280;5143;42.584;23.164;2023-07-24T01:26:24;92850.31;;;16.10;100.00
10202;BME280;5143;42.584;23.164;2023-07-24T01:28:51;92850.13;;;16.03;100.00
10202;BME280;5143;42.584;23.164;2023-07-24T01:31:18;92855.41;;;16.01;100.00
10202;BME280;5143;42.584;23.164;2023-07-24T01:33:45;92854.44;;;15.92;100.00
10202;BME280;5143;42.584;23.164;2023-07-24T01:36:13;92857.75;;;15.80;100.00
10202;BME280;5143;42.584;23.164;2023-07-24T01:38:41;92855.03;;;15.74;100.00
10202;BME280;5143;42.584;23.164;2023-07-24T01:41:08;92862.50;;;15.79;100.00
10202;BME280;5143;42.584;23.164;2023-07-24T01:43:37;92864.06;;;15.69;100.00
10202;BME280;5143;42.584;23.164;2023-07-24T01:46:04;92870.31;;;15.70;100.00
10202;BME280;5143;42.584;23.164;2023-07-24T01:48:30;92874.31;;;15.69;100.00
10202;BME280;5143;42.584;23.164;2023-07-24T01:50:57;92868.09;;;15.68;100.00
10202;BME280;5143;42.584;23.164;2023-07-24T01:53:24;92860.59;;;15.63;100.00
10202;BME280;5143;42.584;23.164;2023-07-24T01:55:51;92868.81;;;15.69;100.00
10202;BME280;5143;42.584;23.164;2023-07-24T01:58:17;92874.25;;;15.85;100.00
10202;BME280;5143;42.584;23.164;2023-07-24T02:00:45;92862.94;;;15.94;100.00
10202;BME280;5143;42.584;23.164;2023-07-24T02:03:12;92858.94;;;15.96;100.00
10202;BME280;5143;42.584;23.164;2023-07-24T02:05:39;92856.91;;;15.96;100.00
10202;BME280;5143;42.584;23.164;2023-07-24T02:08:05;92858.16;;;16.01;100.00
10202;BME280;5143;42.584;23.164;2023-07-24T02:10:32;92857.41;;;16.00;100.00
10202;BME280;5143;42.584;23.164;2023-07-24T02:12:59;92855.63;;;16.03;100.00
10202;BME280;5143;42.584;23.164;2023-07-24T02:15:25;92858.69;;;15.93;100.00
10202;BME280;5143;42.584;23.164;2023-07-24T02:17:54;92854.44;;;15.92;100.00
10202;BME280;5143;42.584;23.164;2023-07-24T02:20:20;92856.22;;;15.90;100.00
10202;BME280;5143;42.584;23.164;2023-07-24T02:22:47;92849.53;;;15.74;100.00
10202;BME280;5143;42.584;23.164;2023-07-24T02:25:14;92853.28;;;15.71;100.00
10202;BME280;5143;42.584;23.164;2023-07-24T02:27:41;92848.06;;;15.73;100.00
10202;BME280;5143;42.584;23.164;2023-07-24T02:30:08;92844.06;;;15.69;100.00
10202;BME280;5143;42.584;23.164;2023-07-24T02:32:35;92843.13;;;15.55;100.00
10202;BME280;5143;42.584;23.164;2023-07-24T02:35:03;92838.88;;;15.54;100.00
10202;BME280;5143;42.584;23.164;2023-07-24T02:37:30;92843.13;;;15.44;100.00
10202;BME280;5143;42.584;23.164;2023-07-24T02:39:57;92842.66;;;15.40;100.00
10202;BME280;5143;42.584;23.164;2023-07-24T02:42:24;92841.41;;;15.35;100.00
10202;BME280;5143;42.584;23.164;2023-07-24T02:44:51;92850.22;;;15.23;100.00
10202;BME280;5143;42.584;23.164;2023-07-24T02:47:18;92833.25;;;15.19;100.00
10202;BME280;5143;42.584;23.164;2023-07-24T02:49:45;92851.75;;;15.24;100.00
10202;BME280;5143;42.584;23.164;2023-07-24T02:52:13;92842.25;;;15.14;100.00
10202;BME280;5143;42.584;23.164;2023-07-24T02:54:40;92850.81;;;15.05;100.00
10202;BME280;5143;42.584;23.164;2023-07-24T02:57:06;92841.78;;;15.04;100.00
10202;BME280;5143;42.584;23.164;2023-07-24T02:59:33;92847.28;;;15.04;100.00
10202;BME280;5143;42.584;23.164;2023-07-24T03:02:00;92841.78;;;15.04;100.00
10202;BME280;5143;42.584;23.164;2023-07-24T03:04:27;92847.53;;;15.01;100.00
10202;BME280;5143;42.584;23.164;2023-07-24T03:06:54;92844.34;;;14.91;100.00
10202;BME280;5143;42.584;23.164;2023-07-24T03:09:22;92850.09;;;14.88;100.00
10202;BME280;5143;42.584;23.164;2023-07-24T03:11:48;92849.09;;;14.80;100.00
10202;BME280;5143;42.584;23.164;2023-07-24T03:14:15;92838.09;;;14.85;100.00
10202;BME280;5143;42.584;23.164;2023-07-24T03:16:42;92841.84;;;14.88;100.00
10202;BME280;5143;42.584;23.164;2023-07-24T03:19:09;92836.34;;;14.88;100.00
10202;BME280;5143;42.584;23.164;2023-07-24T03:21:35;92835.81;;;14.95;100.00
10202;BME280;5143;42.584;23.164;2023-07-24T03:24:02;92840.06;;;15.01;100.00
10202;BME280;5143;42.584;23.164;2023-07-24T03:26:30;92838.78;;;15.08;100.00
10202;BME280;5143;42.584;23.164;2023-07-24T03:28:57;92833.78;;;15.12;100.00
10202;BME280;5143;42.584;23.164;2023-07-24T03:31:24;92827.25;;;15.15;100.00
10202;BME280;5143;42.584;23.164;2023-07-24T03:33:50;92832.75;;;15.20;100.00
10202;BME280;5143;42.584;23.164;2023-07-24T03:36:17;92835.25;;;15.24;100.00
10202;BME280;5143;42.584;23.164;2023-07-24T03:38:44;92837.69;;;15.27;100.00
10202;BME280;5143;42.584;23.164;2023-07-24T03:41:10;92832.50;;;15.24;100.00
10202;BME280;5143;42.584;23.164;2023-07-24T03:43:38;92830.72;;;15.26;100.00
10202;BME280;5143;42.584;23.164;2023-07-24T03:46:05;92837.94;;;15.41;100.00
10202;BME280;5143;42.584;23.164;2023-07-24T03:48:32;92850.72;;;15.27;100.00
10202;BME280;5143;42.584;23.164;2023-07-24T03:51:00;92839.19;;;15.34;100.00
10202;BME280;5143;42.584;23.164;2023-07-24T03:53:27;92843.44;;;15.46;100.00
10202;BME280;5143;42.584;23.164;2023-07-24T03:55:54;92842.63;;;15.57;100.00
10202;BME280;5143;42.584;23.164;2023-07-24T03:58:21;92834.81;;;15.66;100.00
10202;BME280;5143;42.584;23.164;2023-07-24T04:00:49;92838.78;;;15.76;100.00
10202;BME280;5143;42.584;23.164;2023-07-24T04:03:16;92834.03;;;15.71;100.00
10202;BME280;5143;42.584;23.164;2023-07-24T04:05:43;92843.53;;;15.76;100.00
10202;BME280;5143;42.584;23.164;2023-07-24T04:08:09;92846.53;;;15.72;100.00
10202;BME280;5143;42.584;23.164;2023-07-24T04:10:36;92852.75;;;15.84;100.00
10202;BME280;5143;42.584;23.164;2023-07-24T04:13:03;92856.69;;;15.94;100.00
10202;BME280;5143;42.584;23.164;2023-07-24T04:15:29;92863.59;;;16.12;100.00
10202;BME280;5143;42.584;23.164;2023-07-24T04:17:58;92872.25;;;16.27;100.00
10202;BME280;5143;42.584;23.164;2023-07-24T04:20:24;92867.59;;;16.46;100.00
10202;BME280;5143;42.584;23.164;2023-07-24T04:22:51;92874.84;;;16.49;100.00
10202;BME280;5143;42.584;23.164;2023-07-24T04:25:18;92872.28;;;16.57;100.00
10202;BME280;5143;42.584;23.164;2023-07-24T04:27:44;92868.19;;;16.69;100.00
10202;BME280;5143;42.584;23.164;2023-07-24T04:30:11;92866.88;;;16.75;100.00
10202;BME280;5143;42.584;23.164;2023-07-24T04:32:38;92861.81;;;16.79;100.00
10202;BME280;5143;42.584;23.164;2023-07-24T04:35:07;92868.38;;;17.00;100.00
10202;BME280;5143;42.584;23.164;2023-07-24T04:37:34;92868.59;;;18.12;100.00
10202;BME280;5143;42.584;23.164;2023-07-24T04:40:01;92881.69;;;19.65;100.00
10202;BME280;5143;42.584;23.164;2023-07-24T04:42:28;92881.00;;;21.49;96.37
10202;BME280;5143;42.584;23.164;2023-07-24T04:44:54;92896.50;;;23.10;78.27
10202;BME280;5143;42.584;23.164;2023-07-24T04:47:21;92901.56;;;23.57;66.87
10202;BME280;5143;42.584;23.164;2023-07-24T04:49:48;92905.25;;;24.92;60.47
10202;BME280;5143;42.584;23.164;2023-07-24T04:52:16;92910.75;;;25.99;57.40
10202;BME280;5143;42.584;23.164;2023-07-24T04:54:44;92909.19;;;26.91;53.15
10202;BME280;5143;42.584;23.164;2023-07-24T04:57:10;92918.66;;;27.95;46.17
10202;BME280;5143;42.584;23.164;2023-07-24T04:59:37;92910.00;;;28.96;45.24
10202;BME280;5143;42.584;23.164;2023-07-24T05:02:04;92921.91;;;29.75;45.27
10202;BME280;5143;42.584;23.164;2023-07-24T05:04:31;92923.25;;;30.57;42.67
10202;BME280;5143;42.584;23.164;2023-07-24T05:06:57;92917.34;;;30.53;42.03
10202;BME280;5143;42.584;23.164;2023-07-24T05:09:25;92904.28;;;29.44;43.42
10202;BME280;5143;42.584;23.164;2023-07-24T05:11:52;92924.25;;;29.89;40.84
10202;BME280;5143;42.584;23.164;2023-07-24T05:14:19;92914.59;;;29.92;40.98
10202;BME280;5143;42.584;23.164;2023-07-24T05:16:46;92919.91;;;29.97;39.70
10202;BME280;5143;42.584;23.164;2023-07-24T05:19:12;92929.25;;;29.59;41.06
10202;BME280;5143;42.584;23.164;2023-07-24T05:21:39;92928.50;;;30.51;39.82
10202;BME280;5143;42.584;23.164;2023-07-24T05:24:06;92937.31;;;31.00;38.92
10202;BME280;5143;42.584;23.164;2023-07-24T05:26:34;92943.53;;;30.77;37.28
10202;BME280;5143;42.584;23.164;2023-07-24T05:29:00;92939.69;;;30.39;39.24
10202;BME280;5143;42.584;23.164;2023-07-24T05:31:27;92937.13;;;30.65;37.15
10202;BME280;5143;42.584;23.164;2023-07-24T05:33:54;92945.84;;;30.48;38.08
10202;BME280;5143;42.584;23.164;2023-07-24T05:36:21;92949.50;;;31.58;37.38
10202;BME280;5143;42.584;23.164;2023-07-24T05:38:47;92952.06;;;32.70;35.01
10202;BME280;5143;42.584;23.164;2023-07-24T05:41:14;92950.69;;;33.19;33.16
10202;BME280;5143;42.584;23.164;2023-07-24T05:43:42;92952.25;;;34.25;32.22
10202;BME280;5143;42.584;23.164;2023-07-24T05:46:09;92961.53;;;35.10;31.35
10202;BME280;5143;42.584;23.164;2023-07-24T05:48:36;92954.59;;;34.99;29.61
10202;BME280;5143;42.584;23.164;2023-07-24T05:51:03;92958.88;;;35.57;29.87
10202;BME280;5143;42.584;23.164;2023-07-24T05:53:29;92952.19;;;35.07;29.55
10202;BME280;5143;42.584;23.164;2023-07-24T05:56:00;92942.41;;;35.39;29.27
10202;BME280;5143;42.584;23.164;2023-07-24T05:58:27;92934.38;;;34.36;30.24
10202;BME280;5143;42.584;23.164;2023-07-24T06:00:55;92937.94;;;34.37;30.80
10202;BME280;5143;42.584;23.164;2023-07-24T06:03:23;92934.94;;;34.60;31.18
10202;BME280;5143;42.584;23.164;2023-07-24T06:05:51;92935.25;;;35.09;29.89
10202;BME280;5143;42.584;23.164;2023-07-24T06:08:18;92947.91;;;35.80;28.48
10202;BME280;5143;42.584;23.164;2023-07-24T06:10:46;92944.50;;;36.46;26.80
10202;BME280;5143;42.584;23.164;2023-07-24T06:13:13;92945.47;;;37.35;26.55
10202;BME280;5143;42.584;23.164;2023-07-24T06:15:40;92943.63;;;36.10;27.29
10202;BME280;5143;42.584;23.164;2023-07-24T06:18:08;92954.25;;;36.57;27.09
10202;BME280;5143;42.584;23.164;2023-07-24T06:20:35;92942.53;;;36.82;27.01
10202;BME280;5143;42.584;23.164;2023-07-24T06:23:01;92942.03;;;36.54;26.14
10202;BME280;5143;42.584;23.164;2023-07-24T06:25:29;92948.53;;;36.57;27.21
10202;BME280;5143;42.584;23.164;2023-07-24T06:27:56;92947.81;;;36.56;27.21
10202;BME280;5143;42.584;23.164;2023-07-24T06:30:23;92942.25;;;36.12;26.64
10202;BME280;5143;42.584;23.164;2023-07-24T06:32:50;92939.34;;;36.74;26.82
10202;BME280;5143;42.584;23.164;2023-07-24T06:35:18;92940.44;;;37.51;26.11
10202;BME280;5143;42.584;23.164;2023-07-24T06:37:44;92952.84;;;38.13;26.19
10202;BME280;5143;42.584;23.164;2023-07-24T06:40:12;92942.75;;;37.74;26.63
10202;BME280;5143;42.584;23.164;2023-07-24T06:42:38;92941.16;;;36.83;27.19
10202;BME280;5143;42.584;23.164;2023-07-24T06:45:06;92936.91;;;37.35;27.40
10202;BME280;5143;42.584;23.164;2023-07-24T07:04:33;92948.88;;;37.85;28.14
10202;BME280;5143;42.584;23.164;2023-07-24T07:07:00;92948.97;;;37.51;29.05
10202;BME280;5143;42.584;23.164;2023-07-24T07:09:26;92944.34;;;36.27;29.85
10202;BME280;5143;42.584;23.164;2023-07-24T07:11:53;92943.59;;;36.26;30.40
10202;BME280;5143;42.584;23.164;2023-07-24T07:14:20;92932.72;;;36.05;30.75
10202;BME280;5143;42.584;23.164;2023-07-24T07:16:46;92945.88;;;37.45;29.35
10202;BME280;5143;42.584;23.164;2023-07-24T07:19:14;92939.94;;;36.88;30.14
10202;BME280;5143;42.584;23.164;2023-07-24T07:21:42;92934.66;;;37.14;30.11
10202;BME280;5143;42.584;23.164;2023-07-24T07:24:09;92938.03;;;37.28;29.78
10202;BME280;5143;42.584;23.164;2023-07-24T07:26:35;92936.06;;;36.48;30.91
10202;BME280;5143;42.584;23.164;2023-07-24T07:29:02;92934.50;;;37.45;30.24
10202;BME280;5143;42.584;23.164;2023-07-24T07:31:29;92923.50;;;37.38;30.09
10202;BME280;5143;42.584;23.164;2023-07-24T07:33:56;92925.03;;;37.23;30.32
10202;BME280;5143;42.584;23.164;2023-07-24T07:36:23;92932.13;;;37.22;29.66
10202;BME280;5143;42.584;23.164;2023-07-24T07:38:51;92921.38;;;37.38;29.82
10202;BME280;5143;42.584;23.164;2023-07-24T07:41:17;92936.31;;;38.29;29.08
10202;BME280;5143;42.584;23.164;2023-07-24T07:43:44;92930.78;;;37.96;29.12
10202;BME280;5143;42.584;23.164;2023-07-24T07:46:11;92917.84;;;37.75;30.54
10202;BME280;5143;42.584;23.164;2023-07-24T07:48:37;92925.16;;;37.80;29.80
10202;BME280;5143;42.584;23.164;2023-07-24T07:51:05;92924.69;;;38.23;28.95
10202;BME280;5143;42.584;23.164;2023-07-24T07:53:32;92933.19;;;38.80;28.74
10202;BME280;5143;42.584;23.164;2023-07-24T07:56:00;92937.63;;;39.48;27.98
10202;BME280;5143;42.584;23.164;2023-07-24T07:58:27;92936.22;;;39.06;24.14
10202;BME280;5143;42.584;23.164;2023-07-24T08:00:53;92947.09;;;38.89;24.96
10202;BME280;5143;42.584;23.164;2023-07-24T08:03:20;92954.41;;;39.81;25.80
10202;BME280;5143;42.584;23.164;2023-07-24T08:05:47;92939.47;;;39.18;26.37
10202;BME280;5143;42.584;23.164;2023-07-24T08:08:14;92946.34;;;38.89;24.92
10202;BME280;5143;42.584;23.164;2023-07-24T08:10:40;92932.94;;;37.24;26.32
10202;BME280;5143;42.584;23.164;2023-07-24T08:13:08;92927.47;;;37.31;27.17
10202;BME280;5143;42.584;23.164;2023-07-24T08:15:35;92921.53;;;36.74;27.97
10202;BME280;5143;42.584;23.164;2023-07-24T08:18:03;92913.94;;;36.96;24.23
10202;BME280;5143;42.584;23.164;2023-07-24T08:20:30;92918.94;;;37.48;24.13
10202;BME280;5143;42.584;23.164;2023-07-24T08:22:56;92920.09;;;36.90;27.50
10202;BME280;5143;42.584;23.164;2023-07-24T08:25:23;92917.72;;;37.18;23.72
10202;BME280;5143;42.584;23.164;2023-07-24T08:27:50;92906.75;;;36.95;24.16
10202;BME280;5143;42.584;23.164;2023-07-24T08:30:18;92901.50;;;35.15;24.66
10202;BME280;5143;42.584;23.164;2023-07-24T08:32:45;92901.59;;;35.93;25.14
10202;BME280;5143;42.584;23.164;2023-07-24T08:35:12;92897.56;;;34.93;26.94
10202;BME280;5143;42.584;23.164;2023-07-24T08:37:42;92884.88;;;34.80;26.75
10202;BME280;5143;42.584;23.164;2023-07-24T08:40:10;92893.44;;;34.39;25.92
10202;BME280;5143;42.584;23.164;2023-07-24T08:42:38;92895.31;;;33.94;27.62
10202;BME280;5143;42.584;23.164;2023-07-24T08:45:10;92885.25;;;33.13;27.33
10202;BME280;5143;42.584;23.164;2023-07-24T08:47:41;92888.88;;;32.77;29.84
10202;BME280;5143;42.584;23.164;2023-07-24T08:50:09;92891.88;;;32.56;31.32
10202;BME280;5143;42.584;23.164;2023-07-24T08:52:38;92887.03;;;32.22;30.01
10202;BME280;5143;42.584;23.164;2023-07-24T08:55:05;92884.59;;;32.53;30.69
10202;BME280;5143;42.584;23.164;2023-07-24T08:57:32;92885.25;;;32.40;32.71
10202;BME280;5143;42.584;23.164;2023-07-24T08:59:59;92885.78;;;32.25;30.86
10202;BME280;5143;42.584;23.164;2023-07-24T09:02:30;92886.91;;;31.50;31.55
10202;BME280;5143;42.584;23.164;2023-07-24T09:04:58;92878.38;;;31.27;33.31
10202;BME280;5143;42.584;23.164;2023-07-24T09:07:25;92865.72;;;31.16;33.29
10202;BME280;5143;42.584;23.164;2023-07-24T09:09:52;92870.03;;;31.29;33.91
10202;BME280;5143;42.584;23.164;2023-07-24T09:12:18;92867.44;;;31.21;34.14
10202;BME280;5143;42.584;23.164;2023-07-24T09:14:45;92874.97;;;31.40;34.77
10202;BME280;5143;42.584;23.164;2023-07-24T09:17:12;92870.69;;;31.39;34.82
10202;BME280;5143;42.584;23.164;2023-07-24T09:19:39;92875.50;;;31.60;35.91
10202;BME280;5143;42.584;23.164;2023-07-24T09:22:11;92865.28;;;31.89;34.11
10202;BME280;5143;42.584;23.164;2023-07-24T09:24:49;92861.38;;;31.83;34.00
10202;BME280;5143;42.584;23.164;2023-07-24T09:27:16;92857.34;;;31.74;35.76
10202;BME280;5143;42.584;23.164;2023-07-24T09:29:43;92852.69;;;31.67;34.60
10202;BME280;5143;42.584;23.164;2023-07-24T09:32:18;92853.63;;;32.06;35.36
10202;BME280;5143;42.584;23.164;2023-07-24T09:34:45;92851.53;;;32.19;36.18
10202;BME280;5143;42.584;23.164;2023-07-24T09:37:24;92840.13;;;31.93;35.45
10202;BME280;5143;42.584;23.164;2023-07-24T09:39:51;92845.47;;;32.36;35.99
10202;BME280;5143;42.584;23.164;2023-07-24T09:42:18;92844.41;;;32.18;37.36
10202;BME280;5143;42.584;23.164;2023-07-24T09:44:44;92840.25;;;32.07;36.33
10202;BME280;5143;42.584;23.164;2023-07-24T09:47:11;92838.38;;;32.11;37.35
10202;BME280;5143;42.584;23.164;2023-07-24T09:49:38;92844.00;;;32.35;37.80
10202;BME280;5143;42.584;23.164;2023-07-24T09:52:09;92843.31;;;32.48;37.44
10202;BME280;5143;42.584;23.164;2023-07-24T09:54:43;92842.97;;;32.42;37.48
10202;BME280;5143;42.584;23.164;2023-07-24T09:57:13;92847.22;;;32.18;37.38
10202;BME280;5143;42.584;23.164;2023-07-24T09:59:40;92836.94;;;32.10;37.53
10202;BME280;5143;42.584;23.164;2023-07-24T10:02:10;92837.91;;;32.52;38.81
10202;BME280;5143;42.584;23.164;2023-07-24T10:04:38;92837.31;;;32.79;37.42
10202;BME280;5143;42.584;23.164;2023-07-24T10:07:06;92826.75;;;32.54;36.49
10202;BME280;5143;42.584;23.164;2023-07-24T10:09:33;92827.91;;;32.26;35.78
10202;BME280;5143;42.584;23.164;2023-07-24T10:12:02;92825.03;;;32.49;35.98
10202;BME280;5143;42.584;23.164;2023-07-24T10:14:29;92820.88;;;32.38;37.06
10202;BME280;5143;42.584;23.164;2023-07-24T10:16:57;92815.69;;;32.09;36.52
10202;BME280;5143;42.584;23.164;2023-07-24T10:19:24;92822.94;;;32.13;38.66
10202;BME280;5143;42.584;23.164;2023-07-24T10:21:51;92819.56;;;32.64;37.92
10202;BME280;5143;42.584;23.164;2023-07-24T10:24:18;92818.88;;;33.03;38.19
10202;BME280;5143;42.584;23.164;2023-07-24T10:26:49;92813.50;;;33.20;35.88
10202;BME280;5143;42.584;23.164;2023-07-24T10:29:18;92812.22;;;33.10;36.09
10202;BME280;5143;42.584;23.164;2023-07-24T10:31:52;92812.63;;;32.79;35.32
10202;BME280;5143;42.584;23.164;2023-07-24T10:34:19;92806.31;;;32.81;37.84
10202;BME280;5143;42.584;23.164;2023-07-24T10:36:46;92802.28;;;33.22;36.93
10202;BME280;5143;42.584;23.164;2023-07-24T10:39:14;92812.16;;;33.35;34.63
10202;BME280;5143;42.584;23.164;2023-07-24T10:41:41;92796.44;;;32.93;35.90
10202;BME280;5143;42.584;23.164;2023-07-24T10:44:10;92805.47;;;33.03;35.31
10202;BME280;5143;42.584;23.164;2023-07-24T10:46:39;92801.13;;;33.14;36.50
10202;BME280;5143;42.584;23.164;2023-07-24T10:49:07;92803.56;;;33.33;36.57
10202;BME280;5143;42.584;23.164;2023-07-24T10:51:35;92795.38;;;33.25;36.06
10202;BME280;5143;42.584;23.164;2023-07-24T10:54:03;92793.81;;;33.22;34.59
10202;BME280;5143;42.584;23.164;2023-07-24T10:56:31;92791.56;;;33.07;34.40
10202;BME280;5143;42.584;23.164;2023-07-24T10:59:02;92787.53;;;32.60;35.41
10202;BME280;5143;42.584;23.164;2023-07-24T11:01:30;92788.63;;;32.80;35.53
10202;BME280;5143;42.584;23.164;2023-07-24T11:03:59;92790.88;;;33.20;35.38
10202;BME280;5143;42.584;23.164;2023-07-24T11:06:26;92781.91;;;33.78;33.78
10202;BME280;5143;42.584;23.164;2023-07-24T11:08:54;92785.59;;;33.67;33.67
10202;BME280;5143;42.584;23.164;2023-07-24T11:11:27;92784.84;;;33.94;34.43
10202;BME280;5143;42.584;23.164;2023-07-24T11:13:53;92783.75;;;34.15;32.13
10202;BME280;5143;42.584;23.164;2023-07-24T11:16:20;92777.16;;;33.56;32.70
10202;BME280;5143;42.584;23.164;2023-07-24T11:18:49;92776.53;;;33.44;33.44
10202;BME280;5143;42.584;23.164;2023-07-24T11:21:18;92762.91;;;33.27;35.34
10202;BME280;5143;42.584;23.164;2023-07-24T11:23:47;92760.25;;;32.78;35.52
10202;BME280;5143;42.584;23.164;2023-07-24T11:26:14;92770.84;;;33.16;35.31
10202;BME280;5143;42.584;23.164;2023-07-24T11:28:41;92758.97;;;33.06;33.81
10202;BME280;5143;42.584;23.164;2023-07-24T11:31:08;92746.94;;;33.19;36.10
10202;BME280;5143;42.584;23.164;2023-07-24T11:33:36;92747.78;;;33.36;34.72
10202;BME280;5143;42.584;23.164;2023-07-24T11:36:04;92754.28;;;33.24;35.31
10202;BME280;5143;42.584;23.164;2023-07-24T11:38:32;92752.09;;;33.37;35.75
10202;BME280;5143;42.584;23.164;2023-07-24T11:40:59;92750.59;;;33.22;34.53
10202;BME280;5143;42.584;23.164;2023-07-24T11:43:26;92740.13;;;33.38;36.44
10202;BME280;5143;42.584;23.164;2023-07-24T11:45:53;92749.03;;;33.33;36.00
10202;BME280;5143;42.584;23.164;2023-07-24T11:48:24;92738.22;;;32.63;35.79
10202;BME280;5143;42.584;23.164;2023-07-24T11:50:52;92740.00;;;32.70;35.06
10202;BME280;5143;42.584;23.164;2023-07-24T11:53:24;92738.78;;;32.87;35.49
10202;BME280;5143;42.584;23.164;2023-07-24T11:55:53;92738.88;;;33.14;36.42
10202;BME280;5143;42.584;23.164;2023-07-24T11:58:21;92739.41;;;33.38;35.63
10202;BME280;5143;42.584;23.164;2023-07-24T12:00:49;92737.75;;;33.60;35.17
10202;BME280;5143;42.584;23.164;2023-07-24T12:03:19;92733.47;;;33.72;35.66
10202;BME280;5143;42.584;23.164;2023-07-24T12:05:46;92745.56;;;34.02;35.45
10202;BME280;5143;42.584;23.164;2023-07-24T12:08:13;92743.38;;;34.14;35.24
10202;BME280;5143;42.584;23.164;2023-07-24T12:10:40;92748.63;;;34.06;34.45
10202;BME280;5143;42.584;23.164;2023-07-24T12:13:09;92737.31;;;33.79;33.99
10202;BME280;5143;42.584;23.164;2023-07-24T12:15:36;92741.41;;;33.49;35.25
10202;BME280;5143;42.584;23.164;2023-07-24T12:18:03;92733.56;;;33.61;34.43
10202;BME280;5143;42.584;23.164;2023-07-24T12:20:30;92734.38;;;33.77;34.32
10202;BME280;5143;42.584;23.164;2023-07-24T12:22:57;92736.38;;;33.88;34.49
10202;BME280;5143;42.584;23.164;2023-07-24T12:25:24;92716.94;;;33.96;34.89
10202;BME280;5143;42.584;23.164;2023-07-24T12:27:51;92726.78;;;34.22;34.80
10202;BME280;5143;42.584;23.164;2023-07-24T12:30:19;92723.00;;;34.04;35.98
10202;BME280;5143;42.584;23.164;2023-07-24T12:32:46;92720.72;;;33.87;35.69
10202;BME280;5143;42.584;23.164;2023-07-24T12:35:13;92716.66;;;33.63;33.55
10202;BME280;5143;42.584;23.164;2023-07-24T12:37:40;92712.91;;;33.72;34.22
10202;BME280;5143;42.584;23.164;2023-07-24T12:40:08;92709.56;;;33.62;32.86
10202;BME280;5143;42.584;23.164;2023-07-24T12:42:35;92710.69;;;33.30;33.85
10202;BME280;5143;42.584;23.164;2023-07-24T12:45:01;92706.41;;;33.29;34.58
10202;BME280;5143;42.584;23.164;2023-07-24T12:47:30;92702.00;;;33.12;34.49
10202;BME280;5143;42.584;23.164;2023-07-24T12:49:57;92705.69;;;32.89;34.16
10202;BME280;5143;42.584;23.164;2023-07-24T12:52:25;92697.84;;;32.88;36.81
10202;BME280;5143;42.584;23.164;2023-07-24T12:54:52;92696.19;;;32.96;32.88
10202;BME280;5143;42.584;23.164;2023-07-24T12:57:19;92693.38;;;32.96;32.64
10202;BME280;5143;42.584;23.164;2023-07-24T12:59:46;92692.81;;;32.86;32.74
10202;BME280;5143;42.584;23.164;2023-07-24T13:02:13;92705.78;;;32.91;32.88
10202;BME280;5143;42.584;23.164;2023-07-24T13:04:42;92698.34;;;32.84;32.10
10202;BME280;5143;42.584;23.164;2023-07-24T13:07:08;92690.22;;;32.90;33.26
10202;BME280;5143;42.584;23.164;2023-07-24T13:09:35;92688.09;;;32.77;33.20
10202;BME280;5143;42.584;23.164;2023-07-24T13:12:02;92687.06;;;32.98;33.98
10202;BME280;5143;42.584;23.164;2023-07-24T13:14:29;92685.19;;;33.02;31.94
10202;BME280;5143;42.584;23.164;2023-07-24T13:16:55;92673.56;;;32.96;30.91